sensor_id;sensor_type;location;lat;lon;timestamp;temperature;humidity
47310;DHT22;33046;52.270;6.832;2022-11-27T00:00:24;8.60;99.90
47310;DHT22;33046;52.270;6.832;2022-11-27T00:02:32;8.70;99.90
47310;DHT22;33046;52.270;6.832;2022-11-27T00:04:40;8.60;99.90
47310;DHT22;33046;52.270;6.832;2022-11-27T00:06:47;8.60;99.90
47310;DHT22;33046;52.270;6.832;2022-11-27T00:08:55;8.60;99.90
47310;DHT22;33046;52.270;6.832;2022-11-27T00:11:08;8.60;99.90
47310;DHT22;33046;52.270;6.832;2022-11-27T00:13:15;8.60;99.90
47310;DHT22;33046;52.270;6.832;2022-11-27T00:15:22;8.60;99.90
47310;DHT22;33046;52.270;6.832;2022-11-27T00:17:29;8.60;99.90
47310;DHT22;33046;52.270;6.832;2022-11-27T00:19:36;8.60;99.90
47310;DHT22;33046;52.270;6.832;2022-11-27T00:21:42;8.60;99.90
47310;DHT22;33046;52.270;6.832;2022-11-27T00:23:50;8.60;99.90
47310;DHT22;33046;52.270;6.832;2022-11-27T00:25:57;8.50;99.90
47310;DHT22;33046;52.270;6.832;2022-11-27T00:28:05;8.50;99.90
47310;DHT22;33046;52.270;6.832;2022-11-27T00:30:12;8.50;99.90
47310;DHT22;33046;52.270;6.832;2022-11-27T00:32:19;8.50;99.90
47310;DHT22;33046;52.270;6.832;2022-11-27T00:34:26;8.50;99.90
47310;DHT22;33046;52.270;6.832;2022-11-27T00:36:33;8.50;99.90
47310;DHT22;33046;52.270;6.832;2022-11-27T00:38:41;8.50;99.90
47310;DHT22;33046;52.270;6.832;2022-11-27T00:40:48;8.50;99.90
47310;DHT22;33046;52.270;6.832;2022-11-27T00:42:54;8.50;99.90
47310;DHT22;33046;52.270;6.832;2022-11-27T00:45:03;8.40;99.90
47310;DHT22;33046;52.270;6.832;2022-11-27T00:47:10;8.40;99.90
47310;DHT22;33046;52.270;6.832;2022-11-27T00:49:17;8.40;99.90
47310;DHT22;33046;52.270;6.832;2022-11-27T00:51:24;8.40;99.90
47310;DHT22;33046;52.270;6.832;2022-11-27T00:53:31;8.40;99.90
47310;DHT22;33046;52.270;6.832;2022-11-27T00:55:38;8.40;99.90
47310;DHT22;33046;52.270;6.832;2022-11-27T00:57:45;8.40;99.90
47310;DHT22;33046;52.270;6.832;2022-11-27T00:59:52;8.40;99.90
47310;DHT22;33046;52.270;6.832;2022-11-27T01:02:00;8.40;99.90
47310;DHT22;33046;52.270;6.832;2022-11-27T01:04:10;8.40;99.90
47310;DHT22;33046;52.270;6.832;2022-11-27T01:06:18;8.40;99.90
47310;DHT22;33046;52.270;6.832;2022-11-27T01:08:25;8.30;99.90
47310;DHT22;33046;52.270;6.832;2022-11-27T01:10:31;8.40;99.90
47310;DHT22;33046;52.270;6.832;2022-11-27T01:12:38;8.30;99.90
47310;DHT22;33046;52.270;6.832;2022-11-27T01:14:45;8.30;99.90
47310;DHT22;33046;52.270;6.832;2022-11-27T01:16:51;8.30;99.90
47310;DHT22;33046;52.270;6.832;2022-11-27T01:19:00;8.30;99.90
47310;DHT22;33046;52.270;6.832;2022-11-27T01:21:08;8.30;99.90
47310;DHT22;33046;52.270;6.832;2022-11-27T01:23:15;8.30;99.90
47310;DHT22;33046;52.270;6.832;2022-11-27T01:25:21;8.30;99.90
47310;DHT22;33046;52.270;6.832;2022-11-27T01:27:31;8.20;99.90
47310;DHT22;33046;52.270;6.832;2022-11-27T01:29:38;8.20;99.90
47310;DHT22;33046;52.270;6.832;2022-11-27T01:31:44;8.20;99.90
47310;DHT22;33046;52.270;6.832;2022-11-27T01:33:52;8.20;99.90
47310;DHT22;33046;52.270;6.832;2022-11-27T01:36:02;8.20;99.90
47310;DHT22;33046;52.270;6.832;2022-11-27T01:38:09;8.20;99.90
47310;DHT22;33046;52.270;6.832;2022-11-27T01:40:16;8.20;99.90
47310;DHT22;33046;52.270;6.832;2022-11-27T01:42:23;8.20;99.90
47310;DHT22;33046;52.270;6.832;2022-11-27T01:44:50;8.20;99.90
47310;DHT22;33046;52.270;6.832;2022-11-27T01:46:59;8.20;99.90
47310;DHT22;33046;52.270;6.832;2022-11-27T01:49:26;8.20;99.90
47310;DHT22;33046;52.270;6.832;2022-11-27T01:51:36;8.20;99.90
47310;DHT22;33046;52.270;6.832;2022-11-27T01:53:45;8.20;99.90
47310;DHT22;33046;52.270;6.832;2022-11-27T01:55:55;8.20;99.90
47310;DHT22;33046;52.270;6.832;2022-11-27T01:58:07;8.10;99.90
47310;DHT22;33046;52.270;6.832;2022-11-27T02:00:16;8.20;99.90
47310;DHT22;33046;52.270;6.832;2022-11-27T02:02:23;8.20;99.90
47310;DHT22;33046;52.270;6.832;2022-11-27T02:04:30;8.10;99.90
47310;DHT22;33046;52.270;6.832;2022-11-27T02:06:38;8.10;99.90
47310;DHT22;33046;52.270;6.832;2022-11-27T02:08:45;8.10;99.90
47310;DHT22;33046;52.270;6.832;2022-11-27T02:10:53;8.10;99.90
47310;DHT22;33046;52.270;6.832;2022-11-27T02:13:05;8.10;99.90
47310;DHT22;33046;52.270;6.832;2022-11-27T02:15:19;8.10;99.90
47310;DHT22;33046;52.270;6.832;2022-11-27T02:17:34;8.00;99.90
47310;DHT22;33046;52.270;6.832;2022-11-27T02:19:54;8.00;99.90
47310;DHT22;33046;52.270;6.832;2022-11-27T02:22:17;8.00;99.90
47310;DHT22;33046;52.270;6.832;2022-11-27T02:24:46;8.00;99.90
47310;DHT22;33046;52.270;6.832;2022-11-27T02:27:10;8.00;99.90
47310;DHT22;33046;52.270;6.832;2022-11-27T02:29:20;8.00;99.90
47310;DHT22;33046;52.270;6.832;2022-11-27T02:31:35;8.00;99.90
47310;DHT22;33046;52.270;6.832;2022-11-27T02:33:48;8.00;99.90
47310;DHT22;33046;52.270;6.832;2022-11-27T02:36:03;8.00;99.90
47310;DHT22;33046;52.270;6.832;2022-11-27T02:38:14;8.00;99.90
47310;DHT22;33046;52.270;6.832;2022-11-27T02:40:28;7.90;99.90
47310;DHT22;33046;52.270;6.832;2022-11-27T02:42:39;8.00;99.90
47310;DHT22;33046;52.270;6.832;2022-11-27T02:44:54;8.00;99.90
47310;DHT22;33046;52.270;6.832;2022-11-27T02:47:03;8.00;99.90
47310;DHT22;33046;52.270;6.832;2022-11-27T02:49:15;8.00;99.90
47310;DHT22;33046;52.270;6.832;2022-11-27T02:51:26;7.90;99.90
47310;DHT22;33046;52.270;6.832;2022-11-27T02:53:37;7.90;99.90
47310;DHT22;33046;52.270;6.832;2022-11-27T02:55:44;7.90;99.90
47310;DHT22;33046;52.270;6.832;2022-11-27T02:57:55;7.90;99.90
47310;DHT22;33046;52.270;6.832;2022-11-27T03:00:05;7.90;99.90
47310;DHT22;33046;52.270;6.832;2022-11-27T03:02:17;7.90;99.90
47310;DHT22;33046;52.270;6.832;2022-11-27T03:04:28;7.90;99.90
47310;DHT22;33046;52.270;6.832;2022-11-27T03:06:41;7.90;99.90
47310;DHT22;33046;52.270;6.832;2022-11-27T03:08:52;7.90;99.90
47310;DHT22;33046;52.270;6.832;2022-11-27T03:11:03;7.90;99.90
47310;DHT22;33046;52.270;6.832;2022-11-27T03:13:10;7.90;99.90
47310;DHT22;33046;52.270;6.832;2022-11-27T03:15:19;7.90;99.90
47310;DHT22;33046;52.270;6.832;2022-11-27T03:17:35;7.90;99.90
47310;DHT22;33046;52.270;6.832;2022-11-27T03:19:49;7.90;99.90
47310;DHT22;33046;52.270;6.832;2022-11-27T03:21:59;7.90;99.90
47310;DHT22;33046;52.270;6.832;2022-11-27T03:24:07;7.90;99.90
47310;DHT22;33046;52.270;6.832;2022-11-27T03:26:14;7.90;99.90
47310;DHT22;33046;52.270;6.832;2022-11-27T03:28:21;7.80;99.90
47310;DHT22;33046;52.270;6.832;2022-11-27T03:30:30;7.90;99.90
47310;DHT22;33046;52.270;6.832;2022-11-27T03:32:37;7.90;99.90
47310;DHT22;33046;52.270;6.832;2022-11-27T03:34:44;7.90;99.90
47310;DHT22;33046;52.270;6.832;2022-11-27T03:36:51;7.90;99.90
47310;DHT22;33046;52.270;6.832;2022-11-27T03:38:58;7.90;99.90
47310;DHT22;33046;52.270;6.832;2022-11-27T03:41:08;7.80;99.90
47310;DHT22;33046;52.270;6.832;2022-11-27T03:43:19;7.80;99.90
47310;DHT22;33046;52.270;6.832;2022-11-27T03:45:33;7.80;99.90
47310;DHT22;33046;52.270;6.832;2022-11-27T03:47:53;7.80;99.90
47310;DHT22;33046;52.270;6.832;2022-11-27T03:50:14;7.80;99.90
47310;DHT22;33046;52.270;6.832;2022-11-27T03:52:27;7.80;99.90
47310;DHT22;33046;52.270;6.832;2022-11-27T03:54:43;7.80;99.90
47310;DHT22;33046;52.270;6.832;2022-11-27T03:56:58;7.80;99.90
47310;DHT22;33046;52.270;6.832;2022-11-27T03:59:09;7.80;99.90
47310;DHT22;33046;52.270;6.832;2022-11-27T04:01:22;7.80;99.90
47310;DHT22;33046;52.270;6.832;2022-11-27T04:03:30;7.80;99.90
47310;DHT22;33046;52.270;6.832;2022-11-27T04:05:37;7.80;99.90
47310;DHT22;33046;52.270;6.832;2022-11-27T04:07:44;7.80;99.90
47310;DHT22;33046;52.270;6.832;2022-11-27T04:09:51;7.80;99.90
47310;DHT22;33046;52.270;6.832;2022-11-27T04:11:58;7.80;99.90
47310;DHT22;33046;52.270;6.832;2022-11-27T04:14:05;7.80;99.90
47310;DHT22;33046;52.270;6.832;2022-11-27T04:16:11;7.80;99.90
47310;DHT22;33046;52.270;6.832;2022-11-27T04:18:19;7.80;99.90
47310;DHT22;33046;52.270;6.832;2022-11-27T04:20:26;7.80;99.90
47310;DHT22;33046;52.270;6.832;2022-11-27T04:22:33;7.80;99.90
47310;DHT22;33046;52.270;6.832;2022-11-27T04:24:40;7.80;99.90
47310;DHT22;33046;52.270;6.832;2022-11-27T04:26:47;7.80;99.90
47310;DHT22;33046;52.270;6.832;2022-11-27T04:28:53;7.80;99.90
47310;DHT22;33046;52.270;6.832;2022-11-27T04:31:00;7.70;99.90
47310;DHT22;33046;52.270;6.832;2022-11-27T04:33:07;7.80;99.90
47310;DHT22;33046;52.270;6.832;2022-11-27T04:35:15;7.80;99.90
47310;DHT22;33046;52.270;6.832;2022-11-27T04:37:22;7.80;99.90
47310;DHT22;33046;52.270;6.832;2022-11-27T04:39:29;7.80;99.90
47310;DHT22;33046;52.270;6.832;2022-11-27T04:41:35;7.80;99.90
47310;DHT22;33046;52.270;6.832;2022-11-27T04:43:42;7.80;99.90
47310;DHT22;33046;52.270;6.832;2022-11-27T04:45:49;7.80;99.90
47310;DHT22;33046;52.270;6.832;2022-11-27T04:47:56;7.80;99.90
47310;DHT22;33046;52.270;6.832;2022-11-27T04:50:03;7.80;99.90
47310;DHT22;33046;52.270;6.832;2022-11-27T04:52:11;7.80;99.90
47310;DHT22;33046;52.270;6.832;2022-11-27T04:54:18;7.80;99.90
47310;DHT22;33046;52.270;6.832;2022-11-27T04:56:25;7.80;99.90
47310;DHT22;33046;52.270;6.832;2022-11-27T04:58:32;7.80;99.90
47310;DHT22;33046;52.270;6.832;2022-11-27T05:00:38;7.80;99.90
47310;DHT22;33046;52.270;6.832;2022-11-27T05:02:45;7.80;99.90
47310;DHT22;33046;52.270;6.832;2022-11-27T05:04:52;7.70;99.90
47310;DHT22;33046;52.270;6.832;2022-11-27T05:06:59;7.70;99.90
47310;DHT22;33046;52.270;6.832;2022-11-27T05:09:07;7.70;99.90
47310;DHT22;33046;52.270;6.832;2022-11-27T05:11:15;7.70;99.90
47310;DHT22;33046;52.270;6.832;2022-11-27T05:13:22;7.70;99.90
47310;DHT22;33046;52.270;6.832;2022-11-27T05:15:29;7.70;99.90
47310;DHT22;33046;52.270;6.832;2022-11-27T05:17:36;7.70;99.90
47310;DHT22;33046;52.270;6.832;2022-11-27T05:19:43;7.70;99.90
47310;DHT22;33046;52.270;6.832;2022-11-27T05:21:50;7.70;99.90
47310;DHT22;33046;52.270;6.832;2022-11-27T05:23:57;7.70;99.90
47310;DHT22;33046;52.270;6.832;2022-11-27T05:26:05;7.70;99.90
47310;DHT22;33046;52.270;6.832;2022-11-27T05:28:12;7.70;99.90
47310;DHT22;33046;52.270;6.832;2022-11-27T05:30:19;7.70;99.90
47310;DHT22;33046;52.270;6.832;2022-11-27T05:32:26;7.60;99.90
47310;DHT22;33046;52.270;6.832;2022-11-27T05:34:32;7.60;99.90
47310;DHT22;33046;52.270;6.832;2022-11-27T05:36:39;7.60;99.90
47310;DHT22;33046;52.270;6.832;2022-11-27T05:38:46;7.60;99.90
47310;DHT22;33046;52.270;6.832;2022-11-27T05:40:53;7.60;99.90
47310;DHT22;33046;52.270;6.832;2022-11-27T05:43:01;7.60;99.90
47310;DHT22;33046;52.270;6.832;2022-11-27T05:45:08;7.60;99.90
47310;DHT22;33046;52.270;6.832;2022-11-27T05:47:15;7.60;99.90
47310;DHT22;33046;52.270;6.832;2022-11-27T05:49:22;7.60;99.90
47310;DHT22;33046;52.270;6.832;2022-11-27T05:51:29;7.60;99.90
47310;DHT22;33046;52.270;6.832;2022-11-27T05:53:35;7.50;99.90
47310;DHT22;33046;52.270;6.832;2022-11-27T05:55:42;7.60;99.90
47310;DHT22;33046;52.270;6.832;2022-11-27T05:57:49;7.60;99.90
47310;DHT22;33046;52.270;6.832;2022-11-27T05:59:57;7.60;99.90
47310;DHT22;33046;52.270;6.832;2022-11-27T06:02:04;7.60;99.90
47310;DHT22;33046;52.270;6.832;2022-11-27T06:04:10;7.50;99.90
47310;DHT22;33046;52.270;6.832;2022-11-27T06:06:18;7.60;99.90
47310;DHT22;33046;52.270;6.832;2022-11-27T06:08:25;7.60;99.90
47310;DHT22;33046;52.270;6.832;2022-11-27T06:10:32;7.50;99.90
47310;DHT22;33046;52.270;6.832;2022-11-27T06:12:39;7.60;99.90
47310;DHT22;33046;52.270;6.832;2022-11-27T06:14:46;7.60;99.90
47310;DHT22;33046;52.270;6.832;2022-11-27T06:16:54;7.60;99.90
47310;DHT22;33046;52.270;6.832;2022-11-27T06:19:01;7.60;99.90
47310;DHT22;33046;52.270;6.832;2022-11-27T06:21:09;7.50;99.90
47310;DHT22;33046;52.270;6.832;2022-11-27T06:23:17;7.60;99.90
47310;DHT22;33046;52.270;6.832;2022-11-27T06:25:24;7.60;99.90
47310;DHT22;33046;52.270;6.832;2022-11-27T06:27:32;7.60;99.90
47310;DHT22;33046;52.270;6.832;2022-11-27T06:29:38;7.60;99.90
47310;DHT22;33046;52.270;6.832;2022-11-27T06:31:45;7.50;99.90
47310;DHT22;33046;52.270;6.832;2022-11-27T06:33:54;7.60;99.90
47310;DHT22;33046;52.270;6.832;2022-11-27T06:36:01;7.60;99.90
47310;DHT22;33046;52.270;6.832;2022-11-27T06:38:08;7.60;99.90
47310;DHT22;33046;52.270;6.832;2022-11-27T06:40:15;7.60;99.90
47310;DHT22;33046;52.270;6.832;2022-11-27T06:42:22;7.60;99.90
47310;DHT22;33046;52.270;6.832;2022-11-27T06:44:29;7.60;99.90
47310;DHT22;33046;52.270;6.832;2022-11-27T06:46:36;7.60;99.90
47310;DHT22;33046;52.270;6.832;2022-11-27T06:48:43;7.60;99.90
47310;DHT22;33046;52.270;6.832;2022-11-27T06:50:51;7.60;99.90
47310;DHT22;33046;52.270;6.832;2022-11-27T06:52:58;7.60;99.90
47310;DHT22;33046;52.270;6.832;2022-11-27T06:55:05;7.60;99.90
47310;DHT22;33046;52.270;6.832;2022-11-27T06:57:12;7.60;99.90
47310;DHT22;33046;52.270;6.832;2022-11-27T06:59:19;7.60;99.90
47310;DHT22;33046;52.270;6.832;2022-11-27T07:01:27;7.60;99.90
47310;DHT22;33046;52.270;6.832;2022-11-27T07:03:35;7.60;99.90
47310;DHT22;33046;52.270;6.832;2022-11-27T07:05:42;7.70;99.90
47310;DHT22;33046;52.270;6.832;2022-11-27T07:07:50;7.70;99.90
47310;DHT22;33046;52.270;6.832;2022-11-27T07:09:57;7.60;99.90
47310;DHT22;33046;52.270;6.832;2022-11-27T07:12:04;7.60;99.90
47310;DHT22;33046;52.270;6.832;2022-11-27T07:14:10;7.60;99.90
47310;DHT22;33046;52.270;6.832;2022-11-27T07:16:17;7.70;99.90
47310;DHT22;33046;52.270;6.832;2022-11-27T07:18:24;7.70;99.90
47310;DHT22;33046;52.270;6.832;2022-11-27T07:20:31;7.70;99.90
47310;DHT22;33046;52.270;6.832;2022-11-27T07:22:38;7.70;99.90
47310;DHT22;33046;52.270;6.832;2022-11-27T07:24:46;7.70;99.90
47310;DHT22;33046;52.270;6.832;2022-11-27T07:26:53;7.70;99.90
47310;DHT22;33046;52.270;6.832;2022-11-27T07:29:00;7.70;99.90
47310;DHT22;33046;52.270;6.832;2022-11-27T07:31:06;7.70;99.90
47310;DHT22;33046;52.270;6.832;2022-11-27T07:33:13;7.70;99.90
47310;DHT22;33046;52.270;6.832;2022-11-27T07:35:20;7.70;99.90
47310;DHT22;33046;52.270;6.832;2022-11-27T07:37:29;7.70;99.90
47310;DHT22;33046;52.270;6.832;2022-11-27T07:39:36;7.70;99.90
47310;DHT22;33046;52.270;6.832;2022-11-27T07:42:01;7.80;99.90
47310;DHT22;33046;52.270;6.832;2022-11-27T07:44:17;7.80;99.90
47310;DHT22;33046;52.270;6.832;2022-11-27T07:46:23;7.80;99.90
47310;DHT22;33046;52.270;6.832;2022-11-27T07:48:31;7.80;99.90
47310;DHT22;33046;52.270;6.832;2022-11-27T07:50:38;7.90;99.90
47310;DHT22;33046;52.270;6.832;2022-11-27T07:52:45;7.90;99.90
47310;DHT22;33046;52.270;6.832;2022-11-27T07:54:51;7.90;99.90
47310;DHT22;33046;52.270;6.832;2022-11-27T07:56:58;7.90;99.90
47310;DHT22;33046;52.270;6.832;2022-11-27T07:59:06;7.90;99.90
47310;DHT22;33046;52.270;6.832;2022-11-27T08:01:14;7.90;99.90
47310;DHT22;33046;52.270;6.832;2022-11-27T08:03:22;8.00;99.90
47310;DHT22;33046;52.270;6.832;2022-11-27T08:05:29;8.00;99.90
47310;DHT22;33046;52.270;6.832;2022-11-27T08:07:36;8.00;99.90
47310;DHT22;33046;52.270;6.832;2022-11-27T08:09:42;8.00;99.90
47310;DHT22;33046;52.270;6.832;2022-11-27T08:11:49;8.10;99.90
47310;DHT22;33046;52.270;6.832;2022-11-27T08:13:57;8.10;99.90
47310;DHT22;33046;52.270;6.832;2022-11-27T08:16:06;8.10;99.90
47310;DHT22;33046;52.270;6.832;2022-11-27T08:18:13;8.10;99.90
47310;DHT22;33046;52.270;6.832;2022-11-27T08:20:20;8.20;99.90
47310;DHT22;33046;52.270;6.832;2022-11-27T08:22:27;8.20;99.90
47310;DHT22;33046;52.270;6.832;2022-11-27T08:24:33;8.20;99.90
47310;DHT22;33046;52.270;6.832;2022-11-27T08:26:40;8.20;99.90
47310;DHT22;33046;52.270;6.832;2022-11-27T08:28:47;8.30;99.90
47310;DHT22;33046;52.270;6.832;2022-11-27T08:30:57;8.30;99.90
47310;DHT22;33046;52.270;6.832;2022-11-27T08:33:05;8.30;99.90
47310;DHT22;33046;52.270;6.832;2022-11-27T08:35:12;8.30;99.90
47310;DHT22;33046;52.270;6.832;2022-11-27T08:37:19;8.30;99.90
47310;DHT22;33046;52.270;6.832;2022-11-27T08:39:26;8.30;99.90
47310;DHT22;33046;52.270;6.832;2022-11-27T08:41:32;8.30;99.90
47310;DHT22;33046;52.270;6.832;2022-11-27T08:43:39;8.30;99.90
47310;DHT22;33046;52.270;6.832;2022-11-27T08:45:46;8.40;99.90
47310;DHT22;33046;52.270;6.832;2022-11-27T08:47:53;8.30;99.90
47310;DHT22;33046;52.270;6.832;2022-11-27T08:50:01;8.40;99.90
47310;DHT22;33046;52.270;6.832;2022-11-27T08:52:08;8.40;99.90
47310;DHT22;33046;52.270;6.832;2022-11-27T08:54:15;8.40;99.90
47310;DHT22;33046;52.270;6.832;2022-11-27T08:56:23;8.40;99.90
47310;DHT22;33046;52.270;6.832;2022-11-27T08:58:30;8.40;99.90
47310;DHT22;33046;52.270;6.832;2022-11-27T09:00:38;8.40;99.90
47310;DHT22;33046;52.270;6.832;2022-11-27T09:02:45;8.40;99.90
47310;DHT22;33046;52.270;6.832;2022-11-27T09:04:52;8.40;99.90
47310;DHT22;33046;52.270;6.832;2022-11-27T09:07:00;8.50;99.90
47310;DHT22;33046;52.270;6.832;2022-11-27T09:09:07;8.40;99.90
47310;DHT22;33046;52.270;6.832;2022-11-27T09:11:15;8.50;99.90
47310;DHT22;33046;52.270;6.832;2022-11-27T09:13:22;8.40;99.90
47310;DHT22;33046;52.270;6.832;2022-11-27T09:15:29;8.40;99.90
47310;DHT22;33046;52.270;6.832;2022-11-27T09:17:36;8.50;99.90
47310;DHT22;33046;52.270;6.832;2022-11-27T09:19:43;8.50;99.90
47310;DHT22;33046;52.270;6.832;2022-11-27T09:21:49;8.40;99.90
47310;DHT22;33046;52.270;6.832;2022-11-27T09:23:59;8.50;99.90
47310;DHT22;33046;52.270;6.832;2022-11-27T09:26:09;8.50;99.90
47310;DHT22;33046;52.270;6.832;2022-11-27T09:28:16;8.50;99.90
47310;DHT22;33046;52.270;6.832;2022-11-27T09:30:22;8.50;99.90
47310;DHT22;33046;52.270;6.832;2022-11-27T09:32:29;8.50;99.90
47310;DHT22;33046;52.270;6.832;2022-11-27T09:34:36;8.50;99.90
47310;DHT22;33046;52.270;6.832;2022-11-27T09:36:43;8.50;99.90
47310;DHT22;33046;52.270;6.832;2022-11-27T09:38:50;8.50;99.90
47310;DHT22;33046;52.270;6.832;2022-11-27T09:41:02;8.50;99.90
47310;DHT22;33046;52.270;6.832;2022-11-27T09:43:11;8.50;99.90
47310;DHT22;33046;52.270;6.832;2022-11-27T09:45:18;8.50;99.90
47310;DHT22;33046;52.270;6.832;2022-11-27T09:47:31;8.60;99.90
47310;DHT22;33046;52.270;6.832;2022-11-27T09:49:47;8.60;99.90
47310;DHT22;33046;52.270;6.832;2022-11-27T09:51:58;8.60;99.90
47310;DHT22;33046;52.270;6.832;2022-11-27T09:54:12;8.60;99.90
47310;DHT22;33046;52.270;6.832;2022-11-27T09:56:23;8.60;99.90
47310;DHT22;33046;52.270;6.832;2022-11-27T09:58:36;8.60;99.90
47310;DHT22;33046;52.270;6.832;2022-11-27T10:00:44;8.60;99.90
47310;DHT22;33046;52.270;6.832;2022-11-27T10:02:51;8.60;99.90
47310;DHT22;33046;52.270;6.832;2022-11-27T10:04:59;8.60;99.90
47310;DHT22;33046;52.270;6.832;2022-11-27T10:07:32;8.60;99.90
47310;DHT22;33046;52.270;6.832;2022-11-27T10:09:53;8.60;99.90
47310;DHT22;33046;52.270;6.832;2022-11-27T10:12:11;8.60;99.90
47310;DHT22;33046;52.270;6.832;2022-11-27T10:14:29;8.60;99.90
47310;DHT22;33046;52.270;6.832;2022-11-27T10:16:42;8.60;99.90
47310;DHT22;33046;52.270;6.832;2022-11-27T10:18:52;8.70;99.90
47310;DHT22;33046;52.270;6.832;2022-11-27T10:21:06;8.70;99.90
47310;DHT22;33046;52.270;6.832;2022-11-27T10:23:21;8.60;99.90
47310;DHT22;33046;52.270;6.832;2022-11-27T10:25:36;8.60;99.90
47310;DHT22;33046;52.270;6.832;2022-11-27T10:27:56;8.70;99.90
47310;DHT22;33046;52.270;6.832;2022-11-27T10:30:13;8.70;99.90
47310;DHT22;33046;52.270;6.832;2022-11-27T10:32:22;8.70;99.90
47310;DHT22;33046;52.270;6.832;2022-11-27T10:34:54;8.70;99.90
47310;DHT22;33046;52.270;6.832;2022-11-27T10:37:06;8.70;99.90
47310;DHT22;33046;52.270;6.832;2022-11-27T10:39:20;8.70;99.90
47310;DHT22;33046;52.270;6.832;2022-11-27T10:41:31;8.70;99.90
47310;DHT22;33046;52.270;6.832;2022-11-27T10:44:11;8.70;99.90
47310;DHT22;33046;52.270;6.832;2022-11-27T10:46:26;8.70;99.90
47310;DHT22;33046;52.270;6.832;2022-11-27T10:48:33;8.80;99.90
47310;DHT22;33046;52.270;6.832;2022-11-27T10:50:41;8.80;99.90
47310;DHT22;33046;52.270;6.832;2022-11-27T10:52:54;8.70;99.90
47310;DHT22;33046;52.270;6.832;2022-11-27T10:55:08;8.80;99.90
47310;DHT22;33046;52.270;6.832;2022-11-27T10:57:49;8.80;99.90
47310;DHT22;33046;52.270;6.832;2022-11-27T11:00:08;8.80;99.90
47310;DHT22;33046;52.270;6.832;2022-11-27T11:02:30;8.80;99.90
47310;DHT22;33046;52.270;6.832;2022-11-27T11:04:37;8.80;99.90
47310;DHT22;33046;52.270;6.832;2022-11-27T11:06:46;8.90;99.90
47310;DHT22;33046;52.270;6.832;2022-11-27T11:09:00;8.80;99.90
47310;DHT22;33046;52.270;6.832;2022-11-27T11:11:08;8.90;99.90
47310;DHT22;33046;52.270;6.832;2022-11-27T11:13:18;8.90;99.90
47310;DHT22;33046;52.270;6.832;2022-11-27T11:15:27;8.90;99.90
47310;DHT22;33046;52.270;6.832;2022-11-27T11:17:34;8.90;99.90
47310;DHT22;33046;52.270;6.832;2022-11-27T11:19:40;8.90;99.90
47310;DHT22;33046;52.270;6.832;2022-11-27T11:21:47;8.90;99.90
47310;DHT22;33046;52.270;6.832;2022-11-27T11:23:57;8.90;99.90
47310;DHT22;33046;52.270;6.832;2022-11-27T11:26:08;8.90;99.90
47310;DHT22;33046;52.270;6.832;2022-11-27T11:28:19;8.90;99.90
47310;DHT22;33046;52.270;6.832;2022-11-27T11:30:29;8.90;99.90
47310;DHT22;33046;52.270;6.832;2022-11-27T11:32:36;8.90;99.90
47310;DHT22;33046;52.270;6.832;2022-11-27T11:34:47;8.90;99.90
47310;DHT22;33046;52.270;6.832;2022-11-27T11:36:55;8.90;99.90
47310;DHT22;33046;52.270;6.832;2022-11-27T11:39:03;9.00;99.90
47310;DHT22;33046;52.270;6.832;2022-11-27T11:41:10;8.90;99.90
47310;DHT22;33046;52.270;6.832;2022-11-27T11:43:24;8.90;99.90
47310;DHT22;33046;52.270;6.832;2022-11-27T11:45:33;9.00;99.90
47310;DHT22;33046;52.270;6.832;2022-11-27T11:47:43;8.90;99.90
47310;DHT22;33046;52.270;6.832;2022-11-27T11:49:51;9.00;99.90
47310;DHT22;33046;52.270;6.832;2022-11-27T11:52:23;9.00;99.90
47310;DHT22;33046;52.270;6.832;2022-11-27T11:54:47;9.00;99.90
47310;DHT22;33046;52.270;6.832;2022-11-27T11:56:57;9.00;99.90
47310;DHT22;33046;52.270;6.832;2022-11-27T11:59:13;9.00;99.90
47310;DHT22;33046;52.270;6.832;2022-11-27T12:01:37;9.10;99.90
47310;DHT22;33046;52.270;6.832;2022-11-27T12:04:01;9.10;99.90
47310;DHT22;33046;52.270;6.832;2022-11-27T12:06:31;9.10;99.90
47310;DHT22;33046;52.270;6.832;2022-11-27T12:08:52;9.00;99.90
47310;DHT22;33046;52.270;6.832;2022-11-27T12:11:07;9.10;99.90
47310;DHT22;33046;52.270;6.832;2022-11-27T12:13:26;9.10;99.90
47310;DHT22;33046;52.270;6.832;2022-11-27T12:15:42;9.10;99.90
47310;DHT22;33046;52.270;6.832;2022-11-27T12:17:57;9.10;99.90
47310;DHT22;33046;52.270;6.832;2022-11-27T12:20:15;9.00;99.90
47310;DHT22;33046;52.270;6.832;2022-11-27T12:22:36;9.10;99.90
47310;DHT22;33046;52.270;6.832;2022-11-27T12:24:56;9.10;99.90
47310;DHT22;33046;52.270;6.832;2022-11-27T12:27:17;9.10;99.90
47310;DHT22;33046;52.270;6.832;2022-11-27T12:29:45;9.10;99.90
47310;DHT22;33046;52.270;6.832;2022-11-27T12:32:18;9.00;99.90
47310;DHT22;33046;52.270;6.832;2022-11-27T12:34:38;9.10;99.90
47310;DHT22;33046;52.270;6.832;2022-11-27T12:37:06;9.10;99.90
47310;DHT22;33046;52.270;6.832;2022-11-27T12:39:23;9.10;99.90
47310;DHT22;33046;52.270;6.832;2022-11-27T12:41:43;9.10;99.90
47310;DHT22;33046;52.270;6.832;2022-11-27T12:43:52;9.10;99.90
47310;DHT22;33046;52.270;6.832;2022-11-27T12:46:03;9.10;99.90
47310;DHT22;33046;52.270;6.832;2022-11-27T12:48:16;9.10;99.90
47310;DHT22;33046;52.270;6.832;2022-11-27T12:50:35;9.10;99.90
47310;DHT22;33046;52.270;6.832;2022-11-27T12:52:46;9.10;99.90
47310;DHT22;33046;52.270;6.832;2022-11-27T12:55:00;9.20;99.90
47310;DHT22;33046;52.270;6.832;2022-11-27T12:57:14;9.20;99.90
47310;DHT22;33046;52.270;6.832;2022-11-27T12:59:22;9.20;99.90
47310;DHT22;33046;52.270;6.832;2022-11-27T13:01:34;9.20;99.90
47310;DHT22;33046;52.270;6.832;2022-11-27T13:06:12;9.30;99.90
47310;DHT22;33046;52.270;6.832;2022-11-27T13:08:24;9.30;99.90
47310;DHT22;33046;52.270;6.832;2022-11-27T13:10:35;9.30;99.90
47310;DHT22;33046;52.270;6.832;2022-11-27T13:12:49;9.30;99.90
47310;DHT22;33046;52.270;6.832;2022-11-27T13:15:00;9.30;99.90
47310;DHT22;33046;52.270;6.832;2022-11-27T13:17:10;9.30;99.90
47310;DHT22;33046;52.270;6.832;2022-11-27T13:19:22;9.30;99.90
47310;DHT22;33046;52.270;6.832;2022-11-27T13:21:33;9.30;99.90
47310;DHT22;33046;52.270;6.832;2022-11-27T13:23:40;9.30;99.90
47310;DHT22;33046;52.270;6.832;2022-11-27T13:25:50;9.40;99.90
47310;DHT22;33046;52.270;6.832;2022-11-27T13:27:57;9.30;99.90
47310;DHT22;33046;52.270;6.832;2022-11-27T13:30:07;9.40;99.90
47310;DHT22;33046;52.270;6.832;2022-11-27T13:32:19;9.40;99.90
47310;DHT22;33046;52.270;6.832;2022-11-27T13:34:29;9.40;99.90
47310;DHT22;33046;52.270;6.832;2022-11-27T13:36:39;9.40;99.90
47310;DHT22;33046;52.270;6.832;2022-11-27T13:38:52;9.40;99.90
47310;DHT22;33046;52.270;6.832;2022-11-27T13:41:00;9.40;99.90
47310;DHT22;33046;52.270;6.832;2022-11-27T13:43:19;9.40;99.90
47310;DHT22;33046;52.270;6.832;2022-11-27T13:45:30;9.40;99.90
47310;DHT22;33046;52.270;6.832;2022-11-27T13:47:39;9.40;99.90
47310;DHT22;33046;52.270;6.832;2022-11-27T13:49:57;9.40;99.90
47310;DHT22;33046;52.270;6.832;2022-11-27T13:52:10;9.40;99.90
47310;DHT22;33046;52.270;6.832;2022-11-27T13:54:18;9.40;99.90
47310;DHT22;33046;52.270;6.832;2022-11-27T13:56:29;9.40;99.90